createdAt,value
2019-03-10T00:00:28.151Z,3.47
2019-03-10T00:02:56.559Z,4.90
2019-03-10T00:05:24.903Z,4.10
2019-03-10T00:07:53.172Z,3.43
2019-03-10T00:10:21.820Z,3.97
2019-03-10T00:12:50.403Z,3.00
2019-03-10T00:15:18.778Z,2.37
2019-03-10T00:17:47.371Z,3.83
2019-03-10T00:20:15.662Z,4.20
2019-03-10T00:22:43.951Z,5.27
2019-03-10T00:25:12.269Z,5.13
2019-03-10T00:27:40.541Z,6.77
2019-03-10T00:30:16.767Z,9.17
2019-03-10T00:32:45.028Z,6.30
2019-03-10T00:35:13.680Z,4.47
2019-03-10T00:37:41.948Z,4.83
2019-03-10T00:40:29.917Z,4.23
2019-03-10T00:43:17.943Z,4.70
2019-03-10T00:46:15.009Z,5.80
2019-03-10T00:49:12.238Z,5.33
2019-03-10T00:51:55.758Z,6.43
2019-03-10T00:54:24.403Z,4.50
2019-03-10T00:56:52.665Z,4.43
2019-03-10T00:59:20.942Z,3.07
2019-03-10T01:01:49.207Z,7.37
2019-03-10T01:04:17.824Z,4.90
2019-03-10T01:06:46.128Z,4.03
2019-03-10T01:09:14.388Z,3.57
2019-03-10T01:11:42.659Z,2.13
2019-03-10T01:14:10.927Z,4.93
2019-03-10T01:16:39.609Z,5.67
2019-03-10T01:19:07.917Z,2.93
2019-03-10T01:21:36.565Z,6.67
2019-03-10T01:24:05.147Z,4.13
2019-03-10T01:26:33.735Z,5.73
2019-03-10T01:29:02.003Z,2.37
2019-03-10T01:31:58.256Z,2.70
2019-03-10T01:34:32.708Z,4.43
2019-03-10T01:37:00.983Z,5.43
2019-03-10T01:39:29.259Z,3.13
2019-03-10T01:41:57.922Z,5.47
2019-03-10T01:44:26.196Z,10.03
2019-03-10T01:46:54.463Z,3.87
2019-03-10T01:49:22.723Z,4.83
2019-03-10T01:51:51.311Z,4.93
2019-03-10T01:54:19.959Z,3.97
2019-03-10T01:56:48.898Z,3.23
2019-03-10T01:59:17.484Z,1.67
2019-03-10T02:01:46.089Z,6.83
2019-03-10T02:04:14.673Z,15.00
2019-03-10T02:06:43.239Z,3.83
2019-03-10T02:09:11.495Z,2.30
2019-03-10T02:11:40.115Z,2.20
2019-03-10T02:14:08.383Z,1.80
2019-03-10T02:16:36.979Z,4.63
2019-03-10T02:19:05.552Z,3.33
2019-03-10T02:21:33.887Z,2.33
2019-03-10T02:24:02.512Z,2.80
2019-03-10T02:26:31.112Z,2.40
2019-03-10T02:28:59.680Z,2.67
2019-03-10T02:31:28.010Z,2.63
2019-03-10T02:33:56.367Z,3.33
2019-03-10T02:36:24.648Z,3.13
2019-03-10T02:38:52.915Z,4.23
2019-03-10T02:41:22.203Z,4.97
2019-03-10T02:43:50.507Z,3.73
2019-03-10T02:46:18.808Z,4.63
2019-03-10T02:48:47.158Z,4.40
2019-03-10T02:51:15.453Z,2.73
2019-03-10T02:53:43.771Z,5.03
2019-03-10T02:56:12.088Z,3.47
2019-03-10T02:58:40.381Z,1.70
2019-03-10T03:01:08.640Z,2.67
2019-03-10T03:03:36.921Z,2.57
2019-03-10T03:06:05.520Z,1.63
2019-03-10T03:08:33.820Z,2.73
2019-03-10T03:11:02.090Z,2.97
2019-03-10T03:13:30.737Z,2.10
2019-03-10T03:15:59.313Z,2.97
2019-03-10T03:18:27.599Z,2.73
2019-03-10T03:20:55.863Z,4.07
2019-03-10T03:23:24.136Z,2.17
2019-03-10T03:25:52.422Z,1.90
2019-03-10T03:28:20.783Z,3.67
2019-03-10T03:30:49.051Z,2.00
2019-03-10T03:33:17.409Z,2.60
2019-03-10T03:35:54.876Z,3.07
2019-03-10T03:38:26.403Z,3.80
2019-03-10T03:40:58.176Z,1.40
2019-03-10T03:43:26.731Z,3.37
2019-03-10T03:45:55.064Z,2.77
2019-03-10T03:48:23.396Z,1.50
2019-03-10T03:50:51.662Z,1.53
2019-03-10T03:53:19.927Z,3.67
2019-03-10T03:55:48.551Z,3.37
2019-03-10T03:58:16.837Z,2.60
2019-03-10T04:00:46.977Z,4.73
2019-03-10T04:03:15.222Z,2.17
2019-03-10T04:05:43.495Z,1.70
2019-03-10T04:08:11.754Z,2.50
2019-03-10T04:10:40.042Z,2.37
2019-03-10T04:13:08.399Z,2.40
2019-03-10T04:15:37.022Z,5.87
2019-03-10T04:18:05.325Z,2.53
2019-03-10T04:20:34.006Z,3.77
2019-03-10T04:23:02.276Z,1.80
2019-03-10T04:25:30.552Z,2.93
2019-03-10T04:27:58.806Z,1.67
2019-03-10T04:30:27.068Z,6.17
2019-03-10T04:32:55.379Z,2.57
2019-03-10T04:35:23.699Z,2.47
2019-03-10T04:37:52.359Z,2.20
2019-03-10T04:40:20.634Z,2.37
2019-03-10T04:42:48.893Z,2.07
2019-03-10T04:45:17.191Z,2.07
2019-03-10T04:47:45.446Z,2.67
2019-03-10T04:50:16.238Z,1.60
2019-03-10T04:52:43.846Z,2.60
2019-03-10T04:55:14.173Z,3.80
2019-03-10T04:57:44.177Z,1.97
2019-03-10T05:00:12.507Z,2.23
2019-03-10T05:02:40.807Z,4.33
2019-03-10T05:05:09.126Z,3.17
2019-03-10T05:07:37.486Z,2.73
2019-03-10T05:10:06.214Z,2.33
2019-03-10T05:12:34.606Z,5.60
2019-03-10T05:15:03.668Z,3.90
2019-03-10T05:17:31.938Z,3.03
2019-03-10T05:20:00.550Z,3.23
2019-03-10T05:22:28.832Z,1.77
2019-03-10T05:24:57.118Z,1.80
2019-03-10T05:27:25.782Z,1.87
2019-03-10T05:29:54.470Z,1.50
2019-03-10T05:32:23.042Z,3.07
2019-03-10T05:34:51.319Z,2.13
2019-03-10T05:37:19.907Z,1.90
2019-03-10T05:39:48.510Z,1.63
2019-03-10T05:42:16.842Z,2.50
2019-03-10T05:44:45.432Z,1.43
2019-03-10T05:47:14.044Z,1.40
2019-03-10T05:49:42.313Z,2.07
2019-03-10T05:52:10.583Z,3.53
2019-03-10T05:54:38.871Z,3.73
2019-03-10T05:57:07.206Z,1.37
2019-03-10T05:59:35.484Z,2.43
2019-03-10T06:02:03.791Z,6.00
2019-03-10T06:04:32.492Z,2.17
2019-03-10T06:07:00.765Z,3.73
2019-03-10T06:09:29.061Z,2.10
2019-03-10T06:11:57.368Z,2.70
2019-03-10T06:14:25.647Z,2.87
2019-03-10T06:16:54.290Z,2.23
2019-03-10T06:19:22.572Z,1.33
2019-03-10T06:21:50.838Z,0.90
2019-03-10T06:24:19.135Z,1.50
2019-03-10T06:26:47.408Z,2.50
2019-03-10T06:29:15.978Z,2.43
2019-03-10T06:31:44.567Z,2.83
2019-03-10T06:34:13.185Z,1.40
2019-03-10T06:36:41.594Z,1.20
2019-03-10T06:39:09.867Z,3.27
2019-03-10T06:41:38.167Z,2.13
2019-03-10T06:44:06.439Z,1.13
2019-03-10T06:46:34.732Z,1.97
2019-03-10T06:49:03.146Z,1.40
2019-03-10T06:51:31.419Z,4.03
2019-03-10T06:53:59.714Z,4.50
2019-03-10T06:56:28.277Z,2.43
2019-03-10T06:58:56.627Z,4.20
2019-03-10T07:01:26.979Z,4.57
2019-03-10T07:03:55.238Z,4.13
2019-03-10T07:06:23.498Z,3.90
2019-03-10T07:08:51.795Z,6.60
2019-03-10T07:11:20.086Z,4.43
2019-03-10T07:13:48.347Z,2.27
2019-03-10T07:16:16.938Z,3.97
2019-03-10T07:18:45.219Z,6.60
2019-03-10T07:21:13.489Z,4.53
2019-03-10T07:23:41.767Z,4.87
2019-03-10T07:26:10.060Z,5.23
2019-03-10T07:28:39.958Z,4.13
2019-03-10T07:31:09.879Z,7.10
2019-03-10T07:33:42.781Z,5.47
2019-03-10T07:36:12.917Z,6.37
2019-03-10T07:38:48.934Z,5.30
2019-03-10T07:41:21.879Z,6.13
2019-03-10T07:43:51.822Z,5.27
2019-03-10T07:46:38.338Z,4.43
2019-03-10T07:49:08.604Z,4.47
2019-03-10T07:51:38.606Z,2.63
2019-03-10T07:54:08.505Z,3.93
2019-03-10T07:56:47.574Z,3.17
2019-03-10T07:59:31.727Z,6.33
2019-03-10T08:02:07.333Z,8.93
2019-03-10T08:04:42.990Z,4.90
2019-03-10T08:07:12.907Z,2.97
2019-03-10T08:09:58.987Z,4.50
2019-03-10T08:12:45.282Z,3.97
2019-03-10T08:15:21.127Z,3.87
2019-03-10T08:17:51.411Z,4.40
2019-03-10T08:20:21.399Z,6.37
2019-03-10T08:23:00.081Z,10.13
2019-03-10T08:25:48.153Z,14.03
2019-03-10T08:28:20.274Z,16.90
2019-03-10T08:30:55.595Z,13.20
2019-03-10T08:33:31.513Z,5.77
2019-03-10T08:36:01.407Z,6.83
2019-03-10T08:38:37.628Z,8.97
2019-03-10T08:41:10.248Z,9.80
2019-03-10T08:43:55.079Z,19.70
2019-03-10T08:46:25.299Z,14.77
2019-03-10T08:49:01.344Z,12.27
2019-03-10T08:51:31.309Z,18.37
2019-03-10T08:54:07.413Z,17.20
2019-03-10T08:56:40.371Z,13.97
2019-03-10T08:59:13.387Z,15.33
2019-03-10T09:02:00.015Z,11.40
2019-03-10T09:04:29.961Z,7.73
2019-03-10T09:07:18.129Z,9.90
2019-03-10T09:10:05.731Z,9.27
2019-03-10T09:12:38.355Z,15.50
2019-03-10T09:15:12.131Z,10.73
2019-03-10T09:17:42.390Z,8.90
2019-03-10T09:20:15.284Z,10.13
2019-03-10T09:23:00.775Z,11.60
2019-03-10T09:25:48.618Z,11.83
2019-03-10T09:28:21.200Z,7.77
2019-03-10T09:30:51.113Z,5.17
2019-03-10T09:33:23.799Z,7.37
2019-03-10T09:35:59.811Z,9.83
2019-03-10T09:38:32.833Z,6.30
2019-03-10T09:41:20.951Z,4.63
2019-03-10T09:43:59.938Z,5.97
2019-03-10T09:46:29.883Z,13.73
2019-03-10T09:49:16.394Z,7.00
2019-03-10T09:51:46.507Z,5.97
2019-03-10T09:54:28.247Z,5.23
2019-03-10T09:57:00.822Z,5.30
2019-03-10T09:59:30.758Z,6.37
2019-03-10T10:02:03.879Z,7.07
2019-03-10T10:04:37.130Z,6.97
2019-03-10T10:07:07.427Z,7.87
2019-03-10T10:09:37.659Z,5.93
2019-03-10T10:12:13.618Z,4.87
2019-03-10T10:14:42.772Z,5.10
2019-03-10T10:17:18.492Z,6.07
2019-03-10T10:19:57.190Z,6.23
2019-03-10T10:22:42.151Z,9.13
2019-03-10T10:25:15.557Z,8.33
2019-03-10T10:27:45.486Z,4.97
2019-03-10T10:30:24.380Z,7.13
2019-03-10T10:32:54.363Z,7.37
2019-03-10T10:35:39.278Z,7.13
2019-03-10T10:38:25.432Z,5.00
2019-03-10T10:40:58.279Z,6.40
2019-03-10T10:43:28.195Z,9.93
2019-03-10T10:46:07.086Z,4.97
2019-03-10T10:48:39.926Z,7.83
2019-03-10T10:51:12.571Z,9.57
2019-03-10T10:53:45.391Z,3.53
2019-03-10T10:56:15.695Z,3.00
2019-03-10T10:58:54.815Z,3.60
2019-03-10T11:01:27.506Z,3.20
2019-03-10T11:04:15.844Z,5.03
2019-03-10T11:07:01.027Z,6.60
2019-03-10T11:09:40.140Z,3.57
2019-03-10T11:12:10.067Z,6.77
2019-03-10T11:14:40.281Z,4.03
2019-03-10T11:17:22.478Z,4.67
2019-03-10T11:19:52.698Z,5.77
2019-03-10T11:22:24.463Z,5.23
2019-03-10T11:25:06.383Z,5.77
2019-03-10T11:27:42.002Z,5.07
2019-03-10T11:30:23.096Z,2.40
2019-03-10T11:32:56.192Z,2.20
2019-03-10T11:35:32.282Z,4.97
2019-03-10T11:38:02.195Z,4.60
2019-03-10T11:40:32.082Z,3.93
2019-03-10T11:43:10.977Z,3.67
2019-03-10T11:45:40.882Z,2.73
2019-03-10T11:48:10.824Z,5.63
2019-03-10T11:50:43.459Z,4.80
2019-03-10T11:53:22.224Z,3.83
2019-03-10T11:55:55.110Z,3.10
2019-03-10T11:58:25.125Z,2.10
2019-03-10T12:01:00.788Z,2.10
2019-03-10T12:03:33.400Z,4.13
2019-03-10T12:06:06.170Z,2.77
2019-03-10T12:08:41.887Z,5.70
2019-03-10T12:11:10.143Z,4.73
2019-03-10T12:13:38.430Z,5.17
2019-03-10T12:16:06.692Z,6.20
2019-03-10T12:18:34.959Z,5.13
2019-03-10T12:21:03.230Z,5.00
2019-03-10T12:23:31.531Z,4.70
2019-03-10T12:25:59.809Z,4.87
2019-03-10T12:28:28.196Z,2.93
2019-03-10T12:30:56.457Z,2.90
2019-03-10T12:33:24.823Z,8.00
2019-03-10T12:35:53.478Z,3.77
2019-03-10T12:38:21.810Z,3.97
2019-03-10T12:40:50.095Z,4.97
2019-03-10T12:43:18.710Z,8.93
2019-03-10T12:45:47.267Z,8.53
2019-03-10T12:48:15.566Z,13.17
2019-03-10T12:50:43.819Z,8.27
2019-03-10T12:53:12.431Z,6.30
2019-03-10T12:55:41.046Z,8.70
2019-03-10T12:58:09.389Z,7.50
2019-03-10T13:00:37.970Z,7.10
2019-03-10T13:03:06.235Z,5.90
2019-03-10T13:05:34.860Z,5.60
2019-03-10T13:08:03.439Z,7.27
2019-03-10T13:10:31.715Z,10.50
2019-03-10T13:12:59.988Z,4.20
2019-03-10T13:15:28.300Z,7.90
2019-03-10T13:17:56.626Z,9.53
2019-03-10T13:20:28.458Z,6.40
2019-03-10T13:22:54.902Z,5.13
2019-03-10T13:25:23.194Z,4.27
2019-03-10T13:27:51.493Z,7.20
2019-03-10T13:30:19.788Z,4.10
2019-03-10T13:32:48.056Z,4.57
2019-03-10T13:35:16.336Z,4.63
2019-03-10T13:37:44.907Z,6.27
2019-03-10T13:40:14.574Z,7.10
2019-03-10T13:42:43.216Z,6.37
2019-03-10T13:45:18.991Z,9.00
2019-03-10T13:47:47.540Z,5.77
2019-03-10T13:50:16.416Z,9.73
2019-03-10T13:52:44.822Z,4.10
2019-03-10T13:55:13.216Z,4.90
2019-03-10T13:57:41.499Z,6.97
2019-03-10T14:00:19.219Z,4.77
2019-03-10T14:02:47.562Z,2.07
2019-03-10T14:05:15.890Z,9.23
2019-03-10T14:07:44.350Z,2.10
2019-03-10T14:10:13.016Z,6.10
2019-03-10T14:12:41.717Z,7.70
2019-03-10T14:15:12.625Z,4.90
2019-03-10T14:17:41.206Z,5.47
2019-03-10T14:20:11.315Z,6.17
2019-03-10T14:22:39.887Z,6.00
2019-03-10T14:25:13.127Z,6.30
2019-03-10T14:27:41.487Z,8.00
2019-03-10T14:30:18.079Z,4.37
2019-03-10T14:32:46.739Z,7.70
2019-03-10T14:35:15.464Z,11.47
2019-03-10T14:37:43.822Z,4.40
2019-03-10T14:40:17.125Z,6.47
2019-03-10T14:42:45.667Z,4.40
2019-03-10T14:45:17.888Z,5.13
2019-03-10T14:47:46.449Z,6.07
2019-03-10T14:50:18.689Z,7.47
2019-03-10T14:52:47.707Z,4.83
2019-03-10T14:55:21.080Z,5.07
2019-03-10T14:57:49.387Z,5.57
2019-03-10T15:00:23.939Z,4.00
2019-03-10T15:02:52.615Z,3.83
2019-03-10T15:05:21.628Z,2.83
2019-03-10T15:07:49.974Z,3.50
2019-03-10T15:10:18.263Z,4.63
2019-03-10T15:12:46.963Z,3.07
2019-03-10T15:15:22.836Z,2.63
2019-03-10T15:17:50.300Z,3.53
2019-03-10T15:20:21.243Z,2.90
2019-03-10T15:22:48.659Z,8.33
2019-03-10T15:25:18.373Z,3.83
2019-03-10T15:27:46.686Z,3.83
2019-03-10T15:30:22.771Z,2.83
2019-03-10T15:32:51.044Z,4.83
2019-03-10T15:35:19.300Z,2.50
2019-03-10T15:37:47.572Z,3.13
2019-03-10T15:40:19.391Z,5.23
2019-03-10T15:42:47.662Z,3.07
2019-03-10T15:45:18.142Z,4.20
2019-03-10T15:47:46.712Z,3.23
2019-03-10T15:50:33.187Z,4.23
2019-03-10T15:53:01.483Z,4.70
2019-03-10T15:55:29.771Z,4.53
2019-03-10T15:57:58.531Z,2.73
2019-03-10T16:00:28.035Z,4.90
2019-03-10T16:02:56.389Z,1.97
2019-03-10T16:05:26.451Z,3.03
2019-03-10T16:07:54.726Z,5.03
2019-03-10T16:10:23.011Z,1.87
2019-03-10T16:12:51.567Z,3.30
2019-03-10T16:15:23.258Z,5.27
2019-03-10T16:17:51.534Z,2.73
2019-03-10T16:20:19.803Z,3.77
2019-03-10T16:22:48.083Z,3.47
2019-03-10T16:25:17.877Z,3.27
2019-03-10T16:27:46.472Z,1.90
2019-03-10T16:30:25.669Z,2.83
2019-03-10T16:32:54.358Z,3.87
2019-03-10T16:35:22.754Z,7.90
2019-03-10T16:37:51.087Z,2.17
2019-03-10T16:40:22.472Z,5.00
2019-03-10T16:42:50.815Z,4.47
2019-03-10T16:45:27.254Z,3.30
2019-03-10T16:47:57.552Z,4.90
2019-03-10T16:50:27.571Z,3.50
2019-03-10T16:52:55.833Z,1.60
2019-03-10T16:55:24.102Z,4.47
2019-03-10T16:57:54.014Z,3.57
2019-03-10T17:00:22.658Z,3.37
2019-03-10T17:02:52.151Z,2.30
2019-03-10T17:05:23.356Z,3.13
2019-03-10T17:07:51.776Z,3.03
2019-03-10T17:10:22.910Z,3.07
2019-03-10T17:12:51.162Z,2.73
2019-03-10T17:15:21.167Z,2.40
2019-03-10T17:17:49.459Z,5.60
2019-03-10T17:20:18.941Z,1.67
2019-03-10T17:22:47.572Z,2.13
2019-03-10T17:25:16.251Z,3.70
2019-03-10T17:27:44.954Z,4.37
2019-03-10T17:30:16.497Z,4.07
2019-03-10T17:32:45.051Z,2.53
2019-03-10T17:35:13.513Z,2.47
2019-03-10T17:37:42.176Z,2.30
2019-03-10T17:40:19.305Z,2.63
2019-03-10T17:42:47.938Z,2.93
2019-03-10T17:45:24.525Z,2.30
2019-03-10T17:47:52.825Z,1.73
2019-03-10T17:50:21.167Z,1.97
2019-03-10T17:52:50.011Z,1.73
2019-03-10T17:55:25.648Z,2.83
2019-03-10T17:57:53.939Z,1.93
2019-03-10T18:00:23.866Z,2.73
2019-03-10T18:02:52.211Z,4.80
2019-03-10T18:05:20.512Z,2.40
2019-03-10T18:07:49.224Z,2.73
2019-03-10T18:10:18.323Z,3.00
2019-03-10T18:12:46.676Z,2.40
2019-03-10T18:15:16.672Z,2.57
2019-03-10T18:17:44.965Z,3.80
2019-03-10T18:20:18.026Z,1.93
2019-03-10T18:22:46.293Z,3.43
2019-03-10T18:25:15.114Z,1.37
2019-03-10T18:27:43.403Z,2.40
2019-03-10T18:30:17.096Z,1.87
2019-03-10T18:32:45.732Z,1.97
2019-03-10T18:35:14.006Z,3.83
2019-03-10T18:37:42.307Z,3.03
2019-03-10T18:40:21.995Z,3.40
2019-03-10T18:42:50.285Z,2.50
2019-03-10T18:45:19.852Z,1.80
2019-03-10T18:47:48.169Z,2.17
2019-03-10T18:50:20.984Z,1.90
2019-03-10T18:52:49.243Z,2.07
2019-03-10T18:55:18.139Z,1.93
2019-03-10T18:57:46.429Z,3.83
2019-03-10T19:00:23.544Z,1.80
2019-03-10T19:02:51.823Z,2.80
2019-03-10T19:05:20.075Z,1.10
2019-03-10T19:07:48.435Z,1.13
2019-03-10T19:10:17.028Z,3.17
2019-03-10T19:12:45.305Z,1.40
2019-03-10T19:15:24.202Z,1.90
2019-03-10T19:17:52.841Z,1.70
2019-03-10T19:20:21.501Z,3.57
2019-03-10T19:22:49.749Z,2.20
2019-03-10T19:25:18.224Z,1.90
2019-03-10T19:27:46.506Z,3.47
2019-03-10T19:30:23.032Z,1.80
2019-03-10T19:32:51.596Z,1.73
2019-03-10T19:35:19.863Z,2.77
2019-03-10T19:37:48.480Z,1.47
2019-03-10T19:40:18.087Z,2.30
2019-03-10T19:42:46.647Z,2.97
2019-03-10T19:45:17.061Z,2.60
2019-03-10T19:47:45.350Z,1.30
2019-03-10T19:50:15.630Z,1.40
2019-03-10T19:52:43.891Z,1.70
2019-03-10T19:55:16.158Z,2.47
2019-03-10T19:57:44.481Z,0.63
2019-03-10T20:00:18.029Z,2.97
2019-03-10T20:02:46.587Z,3.93
2019-03-10T20:05:15.150Z,0.50
2019-03-10T20:07:44.078Z,2.13
2019-03-10T20:10:17.423Z,2.90
2019-03-10T20:12:45.694Z,1.10
2019-03-10T20:15:24.249Z,1.23
2019-03-10T20:17:52.971Z,1.73
2019-03-10T20:20:29.990Z,1.37
2019-03-10T20:23:00.825Z,1.63
2019-03-10T20:25:28.321Z,2.20
2019-03-10T20:27:56.593Z,2.03
2019-03-10T20:30:26.228Z,3.40
2019-03-10T20:32:54.728Z,2.77
2019-03-10T20:35:23.063Z,3.80
2019-03-10T20:37:51.324Z,5.10
2019-03-10T20:40:21.372Z,3.97
2019-03-10T20:42:49.642Z,4.73
2019-03-10T20:45:17.928Z,5.70
2019-03-10T20:47:46.221Z,4.87
2019-03-10T20:50:21.537Z,2.80
2019-03-10T20:52:49.797Z,5.43
2019-03-10T20:55:18.091Z,7.07
2019-03-10T20:57:46.419Z,8.37
2019-03-10T21:00:19.997Z,6.50
2019-03-10T21:02:48.279Z,5.80
2019-03-10T21:05:16.547Z,5.00
2019-03-10T21:07:45.151Z,18.53
2019-03-10T21:10:24.676Z,6.60
2019-03-10T21:12:53.031Z,7.80
2019-03-10T21:15:22.479Z,4.77
2019-03-10T21:17:51.034Z,2.60
2019-03-10T21:20:21.506Z,6.47
2019-03-10T21:22:49.795Z,2.93
2019-03-10T21:25:23.822Z,4.50
2019-03-10T21:27:52.264Z,6.30
2019-03-10T21:30:25.491Z,2.33
2019-03-10T21:32:53.778Z,6.13
2019-03-10T21:35:22.059Z,5.00
2019-03-10T21:37:50.639Z,3.10
2019-03-10T21:40:31.358Z,3.80
2019-03-10T21:42:59.668Z,3.67
2019-03-10T21:45:28.276Z,3.63
2019-03-10T21:47:56.547Z,8.90
2019-03-10T21:50:25.186Z,4.30
2019-03-10T21:52:53.554Z,2.73
2019-03-10T21:55:21.805Z,3.50
2019-03-10T21:57:50.123Z,8.00
2019-03-10T22:00:19.614Z,8.33
2019-03-10T22:02:47.966Z,4.00
2019-03-10T22:05:17.563Z,8.70
2019-03-10T22:07:45.835Z,5.23
2019-03-10T22:10:26.787Z,9.17
2019-03-10T22:12:49.404Z,5.03
2019-03-10T22:15:19.007Z,5.50
2019-03-10T22:17:47.659Z,3.63
2019-03-10T22:20:19.823Z,1.73
2019-03-10T22:22:49.650Z,4.77
2019-03-10T22:25:18.113Z,2.47
2019-03-10T22:27:46.626Z,4.63
2019-03-10T22:30:19.201Z,3.53
2019-03-10T22:32:47.731Z,6.53
2019-03-10T22:35:16.283Z,4.10
2019-03-10T22:37:44.555Z,3.47
2019-03-10T22:40:15.177Z,5.20
2019-03-10T22:42:43.747Z,3.77
2019-03-10T22:45:17.129Z,1.87
2019-03-10T22:47:45.769Z,3.57
2019-03-10T22:50:15.082Z,2.53
2019-03-10T22:52:43.721Z,3.23
2019-03-10T22:55:13.470Z,4.70
2019-03-10T22:57:41.821Z,3.57
2019-03-10T23:00:18.770Z,3.53
2019-03-10T23:02:47.043Z,2.93
2019-03-10T23:05:15.699Z,4.10
2019-03-10T23:07:43.951Z,4.57
2019-03-10T23:10:13.811Z,3.83
2019-03-10T23:12:42.541Z,4.30
2019-03-10T23:15:14.318Z,2.33
2019-03-10T23:17:42.579Z,1.70
2019-03-10T23:20:13.747Z,2.60
2019-03-10T23:22:42.334Z,2.97
2019-03-10T23:25:11.340Z,1.87
2019-03-10T23:27:40.010Z,1.97
2019-03-10T23:30:20.478Z,2.90
2019-03-10T23:32:48.743Z,4.10
2019-03-10T23:35:17.017Z,8.27
2019-03-10T23:37:45.290Z,2.47
2019-03-10T23:40:15.603Z,3.47
2019-03-10T23:42:44.134Z,2.37
2019-03-10T23:45:14.549Z,1.40
2019-03-10T23:47:42.819Z,2.73
2019-03-10T23:50:15.571Z,1.63
2019-03-10T23:52:43.846Z,4.13
2019-03-10T23:55:12.877Z,4.93
2019-03-10T23:57:41.575Z,3.43
